Etusivu
METAR-TAF:

METAR-TAF

Lentoasemat :

Rørvik, Norja

Leveyspiiri: 64-50N, Pituuspiiri: 011-09E, korkeus merenpinnasta: 4 m

Tämänhetkinen sää

Tämä raportti tehtiin 12 tuntia ja 17 minuuttia sitten, kello 13.20 UTC
Tuuli 7 kn idästä
Lämpötila 1°C
Kosteus 100%
Ilmanpaine 1019 hPa
Näkyvyys 10 km tai enemmän
Muutamia pilviä 500 ft:n korkeudessa
Hajonneita pilviä 1000 ft:n korkeudessa

METAR: ENRM 171320Z 10007KT 9999 FEW005 BKN010 01/01 Q1019

Aika: 02:37 (01:37 UTC)

Sääennuste

Tämä raportti tehtiin 17 tuntia ja 37 minuuttia sitten, kello 08.00 UTC
Ennuste voimassa 17. päivästä klo 09 UTC - 17. päivään klo 13 UTC
Tuuli 7 kn kaakosta
Näkyvyys 10 km tai enemmän
Hajanaisia pilviä 600 ft:n korkeudessa
Hajonneita pilviä 1200 ft:n korkeudessa
Ajoittain
17. päivästä klo 09 UTC - 17. päivään klo 13 UTC
Näkyvyys: 1200 m
700 ft:n korkeudessa
lumikuuroja

TAF: ENRM 170800Z 1709/1713 13007KT 9999 SCT006 BKN012 TEMPO 1709/1713 1200 SHSN VV007

Säähavainnot ja -ennusteet yli 4000 lentoasemalta (METAR- ja TAF-raportit).

Käytössä olevat sääasemat on merkitty karttaan keltaisilla ja punaisilla pisteillä.

Aseta hiiri pisteen päälle nähdäksesi sääaseman nimen.

Klikkaa sitten nähdäksesi säähavainnot ja -ennusteet.

Kartan vaihtaminen: klikkaa mustalla rastilla varustettuja vihreitä pisteitä, niin voit zoomata sisään; viivalla varustettua vihreää pistettä, niin voit zoomata ulos tai vihreitä nuolia, niin pääset viereisille kartoille.


METAR-TAF: